Priv.Wetterstation - Jgerheim - Montan BZ
Wetterdaten: aktuell Mittwoch, 25.05.2011 20:05
Datum Zeit Temp. auen Feuchte A. Luftdruck Regen Wind Richtung Richtung Sonnenschein Solar Windben
25.05.2011 20:05 25,3 C 38 % 1020,2 hPa 0,0 l/m 10,5 km/h (2 Bft) S 191 0 min 30 W/m 24,1 km/h (4 Bft)
25.05.2011 20:00 25,4 C 38 % 1020,2 hPa 0,0 l/m 10,9 km/h (2 Bft) SW 235 0 min 34 W/m 24,1 km/h (4 Bft)
25.05.2011 19:55 25,4 C 38 % 1020,2 hPa 0,0 l/m 10,8 km/h (2 Bft) SW 227 0 min 35 W/m 24,1 km/h (4 Bft)
25.05.2011 19:50 25,5 C 38 % 1020,2 hPa 0,0 l/m 12,4 km/h (3 Bft) SW 221 0 min 39 W/m 22,5 km/h (4 Bft)
25.05.2011 19:45 25,7 C 38 % 1020,2 hPa 0,0 l/m 11,6 km/h (2 Bft) S-SO 155 0 min 43 W/m 20,9 km/h (4 Bft)
25.05.2011 19:40 26,0 C 38 % 1020,1 hPa 0,0 l/m 9,2 km/h (2 Bft) S 186 0 min 47 W/m 22,5 km/h (4 Bft)
25.05.2011 19:35 26,2 C 36 % 1020,1 hPa 0,0 l/m 11,5 km/h (2 Bft) S-SW 205 5 min 112 W/m 27,4 km/h (4 Bft)
25.05.2011 19:30 26,4 C 36 % 1020,1 hPa 0,0 l/m 11,3 km/h (2 Bft) SW 224 5 min 136 W/m 25,7 km/h (4 Bft)
25.05.2011 19:25 26,6 C 36 % 1020,1 hPa 0,0 l/m 13,8 km/h (3 Bft) S-SW 211 5 min 155 W/m 24,1 km/h (4 Bft)
25.05.2011 19:20 26,6 C 35 % 1020,1 hPa 0,0 l/m 18,1 km/h (3 Bft) SW 226 5 min 170 W/m 33,8 km/h (5 Bft)
25.05.2011 19:15 26,7 C 36 % 1020,1 hPa 0,0 l/m 13,1 km/h (3 Bft) SW 225 5 min 187 W/m 24,1 km/h (4 Bft)
25.05.2011 19:10 26,8 C 35 % 1019,8 hPa 0,0 l/m 20,9 km/h (4 Bft) W-SW 248 5 min 208 W/m 37,0 km/h (5 Bft)
25.05.2011 19:05 27,1 C 35 % 1019,8 hPa 0,0 l/m 18,1 km/h (3 Bft) SW 214 5 min 223 W/m 37,0 km/h (5 Bft)
25.05.2011 19:00 27,1 C 35 % 1019,8 hPa 0,0 l/m 9,5 km/h (2 Bft) SW 221 5 min 240 W/m 19,3 km/h (3 Bft)
25.05.2011 18:55 27,1 C 35 % 1019,9 hPa 0,0 l/m 13,2 km/h (3 Bft) W 259 5 min 255 W/m 32,2 km/h (5 Bft)
25.05.2011 18:50 27,2 C 35 % 1019,9 hPa 0,0 l/m 18,8 km/h (3 Bft) SW 233 5 min 269 W/m 37,0 km/h (5 Bft)
25.05.2011 18:45 27,2 C 34 % 1019,9 hPa 0,0 l/m 17,3 km/h (3 Bft) SW 233 5 min 286 W/m 30,6 km/h (5 Bft)
25.05.2011 18:40 27,3 C 34 % 1019,7 hPa 0,0 l/m 20,6 km/h (4 Bft) SW 224 5 min 296 W/m 35,4 km/h (5 Bft)
25.05.2011 18:35 27,6 C 34 % 1019,7 hPa 0,0 l/m 17,0 km/h (3 Bft) W-SW 252 5 min 316 W/m 32,2 km/h (5 Bft)
25.05.2011 18:30 27,4 C 34 % 1019,7 hPa 0,0 l/m 18,1 km/h (3 Bft) SW 219 5 min 331 W/m 33,8 km/h (5 Bft)
25.05.2011 18:25 27,6 C 35 % 1019,9 hPa 0,0 l/m 14,5 km/h (3 Bft) SW 236 5 min 344 W/m 25,7 km/h (4 Bft)
25.05.2011 18:20 27,4 C 33 % 1019,9 hPa 0,0 l/m 23,3 km/h (4 Bft) S 176 5 min 358 W/m 35,4 km/h (5 Bft)
25.05.2011 18:15 27,4 C 33 % 1019,9 hPa 0,0 l/m 27,7 km/h (4 Bft) SW 225 5 min 368 W/m 49,9 km/h (6 Bft)
25.05.2011 18:10 27,7 C 34 % 1020,0 hPa 0,0 l/m 21,8 km/h (4 Bft) W 281 5 min 383 W/m 32,2 km/h (5 Bft)
25.05.2011 18:05 27,8 C 33 % 1020,0 hPa 0,0 l/m 22,9 km/h (4 Bft) SW 227 5 min 400 W/m 38,6 km/h (5 Bft)
25.05.2011 18:00 27,9 C 32 % 1020,0 hPa 0,0 l/m 23,0 km/h (4 Bft) W-SW 244 5 min 412 W/m 38,6 km/h (5 Bft)
25.05.2011 17:55 28,0 C 33 % 1019,9 hPa 0,0 l/m 24,0 km/h (4 Bft) W-SW 242 5 min 430 W/m 41,8 km/h (6 Bft)
25.05.2011 17:50 28,0 C 33 % 1019,9 hPa 0,0 l/m 23,8 km/h (4 Bft) SW 226 5 min 445 W/m 40,2 km/h (6 Bft)
25.05.2011 17:45 28,0 C 34 % 1019,9 hPa 0,0 l/m 21,7 km/h (4 Bft) W-SW 255 5 min 460 W/m 38,6 km/h (5 Bft)
25.05.2011 17:40 28,1 C 32 % 1019,8 hPa 0,0 l/m 30,7 km/h (5 Bft) W-SW 253 5 min 477 W/m 46,7 km/h (6 Bft)
25.05.2011 17:35 28,2 C 33 % 1019,8 hPa 0,0 l/m 23,7 km/h (4 Bft) W 266 5 min 487 W/m 40,2 km/h (6 Bft)
25.05.2011 17:30 28,2 C 32 % 1019,8 hPa 0,0 l/m 24,2 km/h (4 Bft) W-SW 240 5 min 496 W/m 38,6 km/h (5 Bft)
25.05.2011 17:25 28,4 C 32 % 1019,6 hPa 0,0 l/m 26,7 km/h (4 Bft) SW 226 5 min 522 W/m 45,1 km/h (6 Bft)
25.05.2011 17:20 28,7 C 33 % 1019,6 hPa 0,0 l/m 20,1 km/h (4 Bft) W-SW 252 5 min 545 W/m 30,6 km/h (5 Bft)
25.05.2011 17:15 28,6 C 32 % 1019,6 hPa 0,0 l/m 21,8 km/h (4 Bft) SW 228 5 min 553 W/m 37,0 km/h (5 Bft)
25.05.2011 17:10 28,6 C 33 % 1019,9 hPa 0,0 l/m 23,0 km/h (4 Bft) SW 226 5 min 583 W/m 45,1 km/h (6 Bft)
25.05.2011 17:05 28,8 C 32 % 1019,9 hPa 0,0 l/m 18,9 km/h (3 Bft) SW 235 5 min 605 W/m 35,4 km/h (5 Bft)
25.05.2011 17:00 28,6 C 33 % 1019,9 hPa 0,0 l/m 21,1 km/h (4 Bft) SW 222 5 min 644 W/m 37,0 km/h (5 Bft)
25.05.2011 16:55 28,3 C 34 % 1019,9 hPa 0,0 l/m 17,9 km/h (3 Bft) W-SW 255 5 min 685 W/m 33,8 km/h (5 Bft)
25.05.2011 16:50 28,0 C 35 % 1019,9 hPa 0,0 l/m 14,3 km/h (3 Bft) SW 215 5 min 361 W/m 33,8 km/h (5 Bft)
25.05.2011 16:45 27,9 C 35 % 1019,9 hPa 0,0 l/m 16,7 km/h (3 Bft) W-SW 241 5 min 793 W/m 32,2 km/h (5 Bft)
25.05.2011 16:40 27,7 C 35 % 1019,9 hPa 0,0 l/m 17,0 km/h (3 Bft) S-SW 204 0 min 281 W/m 30,6 km/h (5 Bft)
25.05.2011 16:35 27,7 C 35 % 1019,9 hPa 0,0 l/m 15,4 km/h (3 Bft) SW 219 0 min 301 W/m 29,0 km/h (5 Bft)
25.05.2011 16:30 27,8 C 35 % 1019,9 hPa 0,0 l/m 16,3 km/h (3 Bft) SW 218 0 min 296 W/m 27,4 km/h (4 Bft)
25.05.2011 16:25 27,9 C 34 % 1020,0 hPa 0,0 l/m 10,4 km/h (2 Bft) S-SW 197 0 min 267 W/m 24,1 km/h (4 Bft)
25.05.2011 16:20 27,8 C 34 % 1020,0 hPa 0,0 l/m 11,6 km/h (2 Bft) SW 231 0 min 299 W/m 24,1 km/h (4 Bft)
25.05.2011 16:15 27,9 C 35 % 1020,0 hPa 0,0 l/m 12,7 km/h (3 Bft) SW 233 0 min 282 W/m 24,1 km/h (4 Bft)
25.05.2011 16:10 28,0 C 33 % 1019,9 hPa 0,0 l/m 14,3 km/h (3 Bft) S-SW 204 0 min 255 W/m 25,7 km/h (4 Bft)
25.05.2011 16:05 28,3 C 34 % 1019,9 hPa 0,0 l/m 10,5 km/h (2 Bft) S 184 0 min 264 W/m 29,0 km/h (5 Bft)
25.05.2011 16:00 28,4 C 32 % 1019,9 hPa 0,0 l/m 15,0 km/h (3 Bft) SW 217 0 min 259 W/m 32,2 km/h (5 Bft)
25.05.2011 15:55 28,8 C 32 % 1020,1 hPa 0,0 l/m 12,7 km/h (3 Bft) S-SW 206 0 min 266 W/m 25,7 km/h (4 Bft)
25.05.2011 15:50 28,9 C 32 % 1020,1 hPa 0,0 l/m 15,6 km/h (3 Bft) W 276 5 min 553 W/m 27,4 km/h (4 Bft)
25.05.2011 15:45 28,6 C 32 % 1020,1 hPa 0,0 l/m 10,6 km/h (2 Bft) SW 218 5 min 781 W/m 24,1 km/h (4 Bft)
25.05.2011 15:40 28,3 C 32 % 1020,3 hPa 0,0 l/m 15,8 km/h (3 Bft) S-SW 202 0 min 264 W/m 29,0 km/h (5 Bft)
25.05.2011 15:35 28,8 C 31 % 1020,3 hPa 0,0 l/m 10,8 km/h (2 Bft) SW 219 0 min 230 W/m 24,1 km/h (4 Bft)
25.05.2011 15:30 28,9 C 30 % 1020,3 hPa 0,0 l/m 14,8 km/h (3 Bft) W 269 0 min 227 W/m 32,2 km/h (5 Bft)
25.05.2011 15:25 29,6 C 29 % 1020,4 hPa 0,0 l/m 13,0 km/h (3 Bft) S-SW 192 0 min 220 W/m 29,0 km/h (5 Bft)
25.05.2011 15:20 30,1 C 28 % 1020,4 hPa 0,0 l/m 18,0 km/h (3 Bft) W-SW 250 5 min 921 W/m 32,2 km/h (5 Bft)
25.05.2011 15:15 29,8 C 28 % 1020,4 hPa 0,0 l/m 13,7 km/h (3 Bft) W-SW 248 5 min 939 W/m 25,7 km/h (4 Bft)
25.05.2011 15:10 29,7 C 29 % 1020,4 hPa 0,0 l/m 18,8 km/h (3 Bft) SW 227 5 min 892 W/m 29,0 km/h (5 Bft)
25.05.2011 15:05 29,7 C 30 % 1020,4 hPa 0,0 l/m 15,4 km/h (3 Bft) SW 217 5 min 891 W/m 32,2 km/h (5 Bft)
25.05.2011 15:00 29,7 C 29 % 1020,4 hPa 0,0 l/m 19,2 km/h (3 Bft) W-SW 240 5 min 897 W/m 35,4 km/h (5 Bft)
25.05.2011 14:55 29,7 C 31 % 1020,7 hPa 0,0 l/m 16,4 km/h (3 Bft) W 261 5 min 889 W/m 30,6 km/h (5 Bft)
25.05.2011 14:50 29,6 C 29 % 1020,7 hPa 0,0 l/m 15,3 km/h (3 Bft) W 259 5 min 882 W/m 30,6 km/h (5 Bft)
25.05.2011 14:45 29,3 C 29 % 1020,7 hPa 0,0 l/m 16,1 km/h (3 Bft) W 264 5 min 882 W/m 32,2 km/h (5 Bft)
25.05.2011 14:40 29,3 C 31 % 1020,9 hPa 0,0 l/m 14,5 km/h (3 Bft) SW 224 5 min 892 W/m 30,6 km/h (5 Bft)
25.05.2011 14:35 29,5 C 29 % 1020,9 hPa 0,0 l/m 16,0 km/h (3 Bft) W-SW 240 0 min 242 W/m 25,7 km/h (4 Bft)
25.05.2011 14:30 29,6 C 31 % 1020,9 hPa 0,0 l/m 14,3 km/h (3 Bft) W 274 5 min 904 W/m 24,1 km/h (4 Bft)
25.05.2011 14:25 29,6 C 32 % 1021,3 hPa 0,0 l/m 14,1 km/h (3 Bft) W-SW 258 5 min 917 W/m 25,7 km/h (4 Bft)
25.05.2011 14:20 29,4 C 31 % 1021,3 hPa 0,0 l/m 13,3 km/h (3 Bft) W-SW 243 5 min 927 W/m 24,1 km/h (4 Bft)
25.05.2011 14:15 29,1 C 32 % 1021,3 hPa 0,0 l/m 15,8 km/h (3 Bft) W-NW 284 5 min 929 W/m 24,1 km/h (4 Bft)
25.05.2011 14:10 29,2 C 32 % 1021,4 hPa 0,0 l/m 18,3 km/h (3 Bft) W-SW 248 5 min 921 W/m 29,0 km/h (5 Bft)
25.05.2011 14:05 29,2 C 33 % 1021,4 hPa 0,0 l/m 13,2 km/h (3 Bft) SW 215 5 min 904 W/m 29,0 km/h (5 Bft)
25.05.2011 14:00 29,1 C 34 % 1021,4 hPa 0,0 l/m 9,9 km/h (2 Bft) W 263 5 min 916 W/m 24,1 km/h (4 Bft)
25.05.2011 13:55 28,9 C 33 % 1021,6 hPa 0,0 l/m 12,0 km/h (2 Bft) W 276 5 min 934 W/m 27,4 km/h (4 Bft)
25.05.2011 13:50 29,1 C 34 % 1021,6 hPa 0,0 l/m 6,6 km/h (2 Bft) W 259 5 min 944 W/m 24,1 km/h (4 Bft)
25.05.2011 13:45 28,9 C 34 % 1021,6 hPa 0,0 l/m 5,7 km/h (1 Bft) SW 232 5 min 959 W/m 17,7 km/h (3 Bft)
25.05.2011 13:40 28,7 C 33 % 1022,0 hPa 0,0 l/m 0,1 km/h (0 Bft) S-SO 155 5 min 993 W/m 1,6 km/h (1 Bft)
25.05.2011 13:35 28,6 C 32 % 1022,0 hPa 0,0 l/m 2,0 km/h (1 Bft) S-SW 201 5 min 1015 W/m 9,7 km/h (2 Bft)
25.05.2011 13:30 28,4 C 32 % 1022,0 hPa 0,0 l/m 0,0 km/h (0 Bft) W-SW 237 5 min 956 W/m 1,6 km/h (1 Bft)
25.05.2011 13:25 28,4 C 31 % 1022,1 hPa 0,0 l/m 3,7 km/h (1 Bft) W-SW 248 5 min 954 W/m 11,3 km/h (2 Bft)
25.05.2011 13:20 28,4 C 35 % 1022,1 hPa 0,0 l/m 0,7 km/h (0 Bft) S-SO 167 5 min 953 W/m 6,4 km/h (2 Bft)
25.05.2011 13:15 28,3 C 31 % 1022,1 hPa 0,0 l/m 2,7 km/h (1 Bft) SW 233 5 min 947 W/m 11,3 km/h (2 Bft)
25.05.2011 13:10 28,4 C 31 % 1022,5 hPa 0,0 l/m 0,3 km/h (0 Bft) N 360 5 min 941 W/m 4,8 km/h (1 Bft)
25.05.2011 13:05 28,1 C 32 % 1022,5 hPa 0,0 l/m 2,4 km/h (1 Bft) S-SO 157 5 min 936 W/m 8,0 km/h (2 Bft)
25.05.2011 13:00 27,9 C 31 % 1022,5 hPa 0,0 l/m 0,0 km/h (0 Bft) W 276 5 min 934 W/m 1,6 km/h (1 Bft)
25.05.2011 12:55 27,7 C 30 % 1022,6 hPa 0,0 l/m 1,7 km/h (1 Bft) W 277 5 min 934 W/m 11,3 km/h (2 Bft)
25.05.2011 12:50 27,7 C 30 % 1022,6 hPa 0,0 l/m 2,8 km/h (1 Bft) S-SW 194 5 min 921 W/m 11,3 km/h (2 Bft)
25.05.2011 12:45 27,3 C 31 % 1022,6 hPa 0,0 l/m 1,7 km/h (1 Bft) S-SW 193 5 min 917 W/m 11,3 km/h (2 Bft)
25.05.2011 12:40 26,9 C 30 % 1022,8 hPa 0,0 l/m 0,1 km/h (0 Bft) SO 139 5 min 923 W/m 1,6 km/h (1 Bft)
25.05.2011 12:35 27,1 C 29 % 1022,8 hPa 0,0 l/m 0,8 km/h (0 Bft) S 179 5 min 919 W/m 6,4 km/h (2 Bft)
25.05.2011 12:30 27,2 C 29 % 1022,8 hPa 0,0 l/m 0,7 km/h (0 Bft) SW 222 5 min 916 W/m 8,0 km/h (2 Bft)
25.05.2011 12:25 26,8 C 31 % 1023,2 hPa 0,0 l/m 0,4 km/h (0 Bft) SW 226 5 min 912 W/m 8,0 km/h (2 Bft)
25.05.2011 12:20 26,6 C 29 % 1023,2 hPa 0,0 l/m 0,0 km/h (0 Bft) W 268 5 min 904 W/m 1,6 km/h (1 Bft)
25.05.2011 12:15 26,3 C 31 % 1023,2 hPa 0,0 l/m 0,0 km/h (0 Bft) S-SW 201 5 min 912 W/m 1,6 km/h (1 Bft)
25.05.2011 12:10 26,1 C 30 % 1023,3 hPa 0,0 l/m 0,0 km/h (0 Bft) S 174 5 min 902 W/m 1,6 km/h (1 Bft)
25.05.2011 12:05 26,2 C 30 % 1023,3 hPa 0,0 l/m 1,7 km/h (1 Bft) S-SW 211 5 min 895 W/m 9,7 km/h (2 Bft)
25.05.2011 12:00 25,9 C 32 % 1023,3 hPa 0,0 l/m 0,0 km/h (0 Bft) S-SW 195 5 min 882 W/m 1,6 km/h (1 Bft)
25.05.2011 11:55 25,6 C 30 % 1023,6 hPa 0,0 l/m 0,5 km/h (0 Bft) S-SW 211 5 min 882 W/m 4,8 km/h (1 Bft)
25.05.2011 11:50 25,4 C 35 % 1023,6 hPa 0,0 l/m 0,6 km/h (0 Bft) S 188 5 min 874 W/m 8,0 km/h (2 Bft)
25.05.2011 11:45 25,4 C 30 % 1023,6 hPa 0,0 l/m 0,0 km/h (0 Bft) S 185 5 min 867 W/m 1,6 km/h (1 Bft)
25.05.2011 11:40 24,9 C 33 % 1023,9 hPa 0,0 l/m 0,0 km/h (0 Bft) NO 49 5 min 859 W/m 1,6 km/h (1 Bft)
25.05.2011 11:35 24,6 C 34 % 1023,9 hPa 0,0 l/m 0,0 km/h (0 Bft) S 183 5 min 854 W/m 1,6 km/h (1 Bft)
25.05.2011 11:30 24,4 C 34 % 1023,9 hPa 0,0 l/m 0,2 km/h (0 Bft) S-SW 193 5 min 845 W/m 3,2 km/h (1 Bft)
25.05.2011 11:25 24,5 C 35 % 1024,0 hPa 0,0 l/m 0,1 km/h (0 Bft) S-SW 211 5 min 839 W/m 1,6 km/h (1 Bft)
25.05.2011 11:20 24,3 C 36 % 1024,0 hPa 0,0 l/m 0,0 km/h (0 Bft) W 262 5 min 831 W/m 1,6 km/h (1 Bft)
25.05.2011 11:15 24,3 C 37 % 1024,0 hPa 0,0 l/m 0,0 km/h (0 Bft) S-SO 152 5 min 822 W/m 1,6 km/h (1 Bft)
25.05.2011 11:10 23,9 C 36 % 1024,4 hPa 0,0 l/m 0,0 km/h (0 Bft) W-SW 250 5 min 815 W/m 1,6 km/h (1 Bft)
25.05.2011 11:05 23,7 C 38 % 1024,4 hPa 0,0 l/m 0,3 km/h (0 Bft) W 268 5 min 808 W/m 3,2 km/h (1 Bft)
25.05.2011 11:00 23,3 C 39 % 1024,4 hPa 0,0 l/m 0,3 km/h (0 Bft) S 171 5 min 798 W/m 4,8 km/h (1 Bft)
25.05.2011 10:55 23,2 C 40 % 1024,5 hPa 0,0 l/m 0,6 km/h (0 Bft) S-SW 208 5 min 785 W/m 6,4 km/h (2 Bft)
25.05.2011 10:50 23,2 C 43 % 1024,5 hPa 0,0 l/m 0,0 km/h (0 Bft) S 188 5 min 766 W/m 1,6 km/h (1 Bft)
25.05.2011 10:45 23,1 C 42 % 1024,5 hPa 0,0 l/m 1,4 km/h (1 Bft) SW 229 5 min 760 W/m 6,4 km/h (2 Bft)
25.05.2011 10:40 22,9 C 42 % 1024,7 hPa 0,0 l/m 0,1 km/h (0 Bft) SW 221 5 min 764 W/m 1,6 km/h (1 Bft)
25.05.2011 10:35 22,6 C 44 % 1024,7 hPa 0,0 l/m 0,2 km/h (0 Bft) S-SW 207 5 min 743 W/m 1,6 km/h (1 Bft)
25.05.2011 10:30 22,5 C 43 % 1024,7 hPa 0,0 l/m 0,4 km/h (0 Bft) S 181 5 min 739 W/m 4,8 km/h (1 Bft)
25.05.2011 10:25 22,3 C 46 % 1025,0 hPa 0,0 l/m 0,3 km/h (0 Bft) SW 232 5 min 753 W/m 3,2 km/h (1 Bft)
25.05.2011 10:20 22,1 C 47 % 1025,0 hPa 0,0 l/m 0,3 km/h (0 Bft) S-SW 202 5 min 677 W/m 3,2 km/h (1 Bft)
25.05.2011 10:15 21,9 C 47 % 1025,0 hPa 0,0 l/m 0,2 km/h (0 Bft) SW 220 5 min 633 W/m 3,2 km/h (1 Bft)
25.05.2011 10:10 21,7 C 47 % 1025,0 hPa 0,0 l/m 0,0 km/h (0 Bft) S 170 5 min 697 W/m 1,6 km/h (1 Bft)
25.05.2011 10:05 21,4 C 49 % 1025,0 hPa 0,0 l/m 0,1 km/h (0 Bft) S 170 5 min 682 W/m 1,6 km/h (1 Bft)
25.05.2011 10:00 21,1 C 49 % 1025,0 hPa 0,0 l/m 0,1 km/h (0 Bft) S-SO 165 5 min 661 W/m 1,6 km/h (1 Bft)
25.05.2011 09:55 20,8 C 51 % 1025,2 hPa 0,0 l/m 0,0 km/h (0 Bft) S-SO 162 5 min 640 W/m 1,6 km/h (1 Bft)
25.05.2011 09:50 20,7 C 53 % 1025,2 hPa 0,0 l/m 0,0 km/h (0 Bft) S-SO 159 5 min 622 W/m 1,6 km/h (1 Bft)
25.05.2011 09:45 20,5 C 52 % 1025,2 hPa 0,0 l/m 0,1 km/h (0 Bft) SW 224 5 min 620 W/m 1,6 km/h (1 Bft)
25.05.2011 09:40 20,3 C 52 % 1025,2 hPa 0,0 l/m 0,0 km/h (0 Bft) S-SW 212 5 min 605 W/m 1,6 km/h (1 Bft)
25.05.2011 09:35 20,2 C 52 % 1025,2 hPa 0,0 l/m 0,0 km/h (0 Bft) S-SW 210 5 min 593 W/m 1,6 km/h (1 Bft)
25.05.2011 09:30 20,2 C 51 % 1025,2 hPa 0,0 l/m 0,1 km/h (0 Bft) S-SW 208 5 min 580 W/m 3,2 km/h (1 Bft)
25.05.2011 09:25 20,3 C 52 % 1025,3 hPa 0,0 l/m 0,1 km/h (0 Bft) SW 214 5 min 566 W/m 3,2 km/h (1 Bft)
25.05.2011 09:20 20,2 C 53 % 1025,3 hPa 0,0 l/m 0,0 km/h (0 Bft) SW 218 5 min 554 W/m 1,6 km/h (1 Bft)
25.05.2011 09:15 20,2 C 53 % 1025,3 hPa 0,0 l/m 0,0 km/h (0 Bft) SW 229 5 min 537 W/m 1,6 km/h (1 Bft)
25.05.2011 09:10 20,1 C 52 % 1025,3 hPa 0,0 l/m 0,0 km/h (0 Bft) SW 225 5 min 524 W/m 0,0 km/h (0 Bft)
25.05.2011 09:05 19,9 C 51 % 1025,3 hPa 0,0 l/m 0,0 km/h (0 Bft) SW 220 5 min 513 W/m 0,0 km/h (0 Bft)
25.05.2011 09:00 19,9 C 52 % 1025,3 hPa 0,0 l/m 0,0 km/h (0 Bft) W-SW 244 5 min 496 W/m 1,6 km/h (1 Bft)
25.05.2011 08:55 19,9 C 52 % 1025,4 hPa 0,0 l/m 0,0 km/h (0 Bft) W-SW 244 5 min 485 W/m 1,6 km/h (1 Bft)
25.05.2011 08:50 19,7 C 52 % 1025,4 hPa 0,0 l/m 0,0 km/h (0 Bft) W-SW 242 5 min 468 W/m 1,6 km/h (1 Bft)
25.05.2011 08:45 19,5 C 52 % 1025,4 hPa 0,0 l/m 0,0 km/h (0 Bft) O-NO 67 5 min 453 W/m 0,0 km/h (0 Bft)
25.05.2011 08:40 19,3 C 50 % 1025,2 hPa 0,0 l/m 0,0 km/h (0 Bft) S-SO 164 5 min 442 W/m 1,6 km/h (1 Bft)
25.05.2011 08:35 19,2 C 50 % 1025,2 hPa 0,0 l/m 0,0 km/h (0 Bft) S-SO 164 5 min 430 W/m 1,6 km/h (1 Bft)
25.05.2011 08:30 19,1 C 53 % 1025,2 hPa 0,0 l/m 0,0 km/h (0 Bft) S-SO 164 5 min 417 W/m 1,6 km/h (1 Bft)
25.05.2011 08:25 18,9 C 52 % 1025,3 hPa 0,0 l/m 0,0 km/h (0 Bft) S-SO 164 5 min 403 W/m 0,0 km/h (0 Bft)
25.05.2011 08:20 18,8 C 52 % 1025,3 hPa 0,0 l/m 0,0 km/h (0 Bft) S-SO 164 5 min 388 W/m 1,6 km/h (1 Bft)
25.05.2011 08:15 18,7 C 54 % 1025,3 hPa 0,0 l/m 0,0 km/h (0 Bft) O-SO 104 5 min 375 W/m 1,6 km/h (1 Bft)
25.05.2011 08:10 18,5 C 55 % 1025,2 hPa 0,0 l/m 0,0 km/h (0 Bft) O-SO 104 5 min 356 W/m 1,6 km/h (1 Bft)
25.05.2011 08:05 18,4 C 53 % 1025,2 hPa 0,0 l/m 0,0 km/h (0 Bft) O-SO 104 5 min 343 W/m 0,0 km/h (0 Bft)
25.05.2011 08:00 18,3 C 54 % 1025,2 hPa 0,0 l/m 0,0 km/h (0 Bft) O-SO 104 5 min 328 W/m 0,0 km/h (0 Bft)
25.05.2011 07:55 18,2 C 58 % 1025,2 hPa 0,0 l/m 0,0 km/h (0 Bft) O-SO 104 5 min 314 W/m 0,0 km/h (0 Bft)
25.05.2011 07:50 18,2 C 59 % 1025,2 hPa 0,0 l/m 0,0 km/h (0 Bft) O-SO 104 5 min 299 W/m 1,6 km/h (1 Bft)
25.05.2011 07:45 18,1 C 60 % 1025,2 hPa 0,0 l/m 0,0 km/h (0 Bft) O-SO 104 5 min 286 W/m 1,6 km/h (1 Bft)
25.05.2011 07:40 17,9 C 59 % 1025,1 hPa 0,0 l/m 0,0 km/h (0 Bft) O-SO 104 5 min 272 W/m 1,6 km/h (1 Bft)
25.05.2011 07:35 17,8 C 59 % 1025,1 hPa 0,0 l/m 0,0 km/h (0 Bft) O-SO 104 5 min 262 W/m 1,6 km/h (1 Bft)
25.05.2011 07:30 17,7 C 60 % 1025,1 hPa 0,0 l/m 0,0 km/h (0 Bft) O-SO 104 5 min 247 W/m 1,6 km/h (1 Bft)
25.05.2011 07:25 17,6 C 60 % 1025,2 hPa 0,0 l/m 0,0 km/h (0 Bft) SO 134 0 min 153 W/m 0,0 km/h (0 Bft)
25.05.2011 07:20 17,4 C 58 % 1025,2 hPa 0,0 l/m 0,0 km/h (0 Bft) S-SW 202 5 min 220 W/m 1,6 km/h (1 Bft)
25.05.2011 07:15 17,3 C 60 % 1025,2 hPa 0,0 l/m 0,0 km/h (0 Bft) N 0 5 min 204 W/m 0,0 km/h (0 Bft)
25.05.2011 07:10 17,2 C 60 % 1025,0 hPa 0,0 l/m 0,0 km/h (0 Bft) N 0 5 min 182 W/m 0,0 km/h (0 Bft)
25.05.2011 07:05 17,1 C 59 % 1025,0 hPa 0,0 l/m 0,0 km/h (0 Bft) S-SW 202 5 min 168 W/m 1,6 km/h (1 Bft)
25.05.2011 07:00 17,0 C 59 % 1025,0 hPa 0,0 l/m 1,6 km/h (1 Bft) S-SW 202 0 min 45 W/m 6,4 km/h (2 Bft)
25.05.2011 06:55 16,9 C 60 % 1024,8 hPa 0,0 l/m 0,0 km/h (0 Bft) S-SW 202 0 min 42 W/m 6,4 km/h (2 Bft)
25.05.2011 06:50 16,9 C 61 % 1024,8 hPa 0,0 l/m 0,0 km/h (0 Bft) O 90 0 min 42 W/m 4,8 km/h (1 Bft)
25.05.2011 06:45 16,9 C 61 % 1024,8 hPa 0,0 l/m 3,2 km/h (1 Bft) O-NO 67 0 min 45 W/m 8,0 km/h (2 Bft)
25.05.2011 06:40 17,0 C 60 % 1024,7 hPa 0,0 l/m 0,0 km/h (0 Bft) N 0 0 min 49 W/m 0,0 km/h (0 Bft)
25.05.2011 06:35 16,9 C 61 % 1024,7 hPa 0,0 l/m 0,0 km/h (0 Bft) N 0 0 min 49 W/m 0,0 km/h (0 Bft)
25.05.2011 06:30 16,9 C 60 % 1024,7 hPa 0,0 l/m 0,0 km/h (0 Bft) O-NO 67 0 min 47 W/m 1,6 km/h (1 Bft)
25.05.2011 06:25 16,9 C 59 % 1024,3 hPa 0,0 l/m 0,0 km/h (0 Bft) N 0 0 min 39 W/m 0,0 km/h (0 Bft)
25.05.2011 06:20 17,0 C 60 % 1024,3 hPa 0,0 l/m 1,6 km/h (1 Bft) O-NO 67 0 min 35 W/m 6,4 km/h (2 Bft)
25.05.2011 06:15 17,1 C 59 % 1024,3 hPa 0,0 l/m 1,6 km/h (1 Bft) O-NO 67 0 min 34 W/m 4,8 km/h (1 Bft)
25.05.2011 06:10 17,2 C 59 % 1023,9 hPa 0,0 l/m 0,0 km/h (0 Bft) O-NO 67 0 min 32 W/m 1,6 km/h (1 Bft)
25.05.2011 06:05 17,3 C 60 % 1023,9 hPa 0,0 l/m 0,0 km/h (0 Bft) O-NO 67 0 min 30 W/m 1,6 km/h (1 Bft)
25.05.2011 06:00 17,3 C 59 % 1023,9 hPa 0,0 l/m 0,0 km/h (0 Bft) N 0 0 min 27 W/m 0,0 km/h (0 Bft)
25.05.2011 05:55 17,3 C 58 % 1023,7 hPa 0,0 l/m 0,0 km/h (0 Bft) N 0 0 min 20 W/m 0,0 km/h (0 Bft)
25.05.2011 05:50 17,3 C 58 % 1023,7 hPa 0,0 l/m 0,0 km/h (0 Bft) N 0 0 min 13 W/m 0,0 km/h (0 Bft)
25.05.2011 05:45 17,4 C 58 % 1023,7 hPa 0,0 l/m 0,0 km/h (0 Bft) O-NO 67 0 min 10 W/m 1,6 km/h (1 Bft)
25.05.2011 05:40 17,4 C 58 % 1023,6 hPa 0,0 l/m 0,0 km/h (0 Bft) N 0 0 min 7 W/m 0,0 km/h (0 Bft)
25.05.2011 05:35 17,4 C 58 % 1023,6 hPa 0,0 l/m 1,6 km/h (1 Bft) O-NO 67 0 min 5 W/m 4,8 km/h (1 Bft)
25.05.2011 05:30 17,4 C 57 % 1023,6 hPa 0,0 l/m 0,0 km/h (0 Bft) O 90 0 min 0 W/m 6,4 km/h (2 Bft)
25.05.2011 05:25 17,3 C 57 % 1023,5 hPa 0,0 l/m 0,0 km/h (0 Bft) N 0 0 min 0 W/m 0,0 km/h (0 Bft)
25.05.2011 05:20 17,4 C 57 % 1023,5 hPa 0,0 l/m 0,0 km/h (0 Bft) O 90 0 min 0 W/m 4,8 km/h (1 Bft)
25.05.2011 05:15 17,4 C 57 % 1023,5 hPa 0,0 l/m 4,8 km/h (1 Bft) O 90 0 min 0 W/m 8,0 km/h (2 Bft)
25.05.2011 05:10 17,4 C 58 % 1023,5 hPa 0,0 l/m 0,0 km/h (0 Bft) O-NO 67 0 min 0 W/m 1,6 km/h (1 Bft)
25.05.2011 05:05 17,5 C 57 % 1023,5 hPa 0,0 l/m 0,0 km/h (0 Bft) O-NO 67 0 min 0 W/m 1,6 km/h (1 Bft)
25.05.2011 05:00 17,6 C 56 % 1023,5 hPa 0,0 l/m 3,2 km/h (1 Bft) O-NO 67 0 min 0 W/m 6,4 km/h (2 Bft)
25.05.2011 04:55 17,7 C 57 % 1023,4 hPa 0,0 l/m 0,0 km/h (0 Bft) NO 45 0 min 0 W/m 3,2 km/h (1 Bft)
25.05.2011 04:50 17,9 C 56 % 1023,4 hPa 0,0 l/m 0,0 km/h (0 Bft) N 0 0 min 0 W/m 0,0 km/h (0 Bft)
25.05.2011 04:45 17,9 C 56 % 1023,4 hPa 0,0 l/m 0,0 km/h (0 Bft) NO 45 0 min 0 W/m 1,6 km/h (1 Bft)
25.05.2011 04:40 17,9 C 56 % 1023,4 hPa 0,0 l/m 1,6 km/h (1 Bft) NO 45 0 min 0 W/m 4,8 km/h (1 Bft)
25.05.2011 04:35 17,7 C 57 % 1023,4 hPa 0,0 l/m 0,0 km/h (0 Bft) O-NO 67 0 min 0 W/m 1,6 km/h (1 Bft)
25.05.2011 04:30 17,6 C 57 % 1023,4 hPa 0,0 l/m 3,2 km/h (1 Bft) O 90 0 min 0 W/m 6,4 km/h (2 Bft)
25.05.2011 04:25 17,6 C 59 % 1023,5 hPa 0,0 l/m 3,2 km/h (1 Bft) O 90 0 min 0 W/m 6,4 km/h (2 Bft)
25.05.2011 04:20 17,7 C 59 % 1023,5 hPa 0,0 l/m 1,6 km/h (1 Bft) O 90 0 min 0 W/m 6,4 km/h (2 Bft)
25.05.2011 04:15 17,9 C 57 % 1023,5 hPa 0,0 l/m 1,6 km/h (1 Bft) O 90 0 min 0 W/m 4,8 km/h (1 Bft)
25.05.2011 04:10 17,9 C 56 % 1023,2 hPa 0,0 l/m 0,0 km/h (0 Bft) N 0 0 min 0 W/m 0,0 km/h (0 Bft)
25.05.2011 04:05 18,1 C 56 % 1023,2 hPa 0,0 l/m 0,0 km/h (0 Bft) N 0 0 min 0 W/m 0,0 km/h (0 Bft)
25.05.2011 04:00 18,2 C 56 % 1023,2 hPa 0,0 l/m 0,0 km/h (0 Bft) O 90 0 min 0 W/m 4,8 km/h (1 Bft)
25.05.2011 03:55 18,1 C 57 % 1023,2 hPa 0,0 l/m 3,2 km/h (1 Bft) O 90 0 min 0 W/m 6,4 km/h (2 Bft)
25.05.2011 03:50 18,1 C 58 % 1023,2 hPa 0,0 l/m 0,0 km/h (0 Bft) O 90 0 min 0 W/m 1,6 km/h (1 Bft)
25.05.2011 03:45 18,2 C 58 % 1023,2 hPa 0,0 l/m 1,6 km/h (1 Bft) O 90 0 min 0 W/m 4,8 km/h (1 Bft)
25.05.2011 03:40 18,2 C 58 % 1023,1 hPa 0,0 l/m 1,6 km/h (1 Bft) O 90 0 min 0 W/m 4,8 km/h (1 Bft)
25.05.2011 03:35 18,2 C 59 % 1023,1 hPa 0,0 l/m 0,0 km/h (0 Bft) O 90 0 min 0 W/m 1,6 km/h (1 Bft)
25.05.2011 03:30 18,2 C 59 % 1023,1 hPa 0,0 l/m 0,0 km/h (0 Bft) N 0 0 min 0 W/m 0,0 km/h (0 Bft)
25.05.2011 03:25 18,2 C 59 % 1023,0 hPa 0,0 l/m 0,0 km/h (0 Bft) O 90 0 min 0 W/m 4,8 km/h (1 Bft)
25.05.2011 03:20 18,2 C 60 % 1023,0 hPa 0,0 l/m 3,2 km/h (1 Bft) O 90 0 min 0 W/m 8,0 km/h (2 Bft)
25.05.2011 03:15 18,2 C 60 % 1023,0 hPa 0,0 l/m 1,6 km/h (1 Bft) O 90 0 min 0 W/m 6,4 km/h (2 Bft)
25.05.2011 03:10 18,3 C 60 % 1023,0 hPa 0,0 l/m 3,2 km/h (1 Bft) O 90 0 min 0 W/m 6,4 km/h (2 Bft)
25.05.2011 03:05 18,6 C 60 % 1023,0 hPa 0,0 l/m 0,0 km/h (0 Bft) O 90 0 min 0 W/m 4,8 km/h (1 Bft)
25.05.2011 03:00 18,7 C 59 % 1023,0 hPa 0,0 l/m 0,0 km/h (0 Bft) O 90 0 min 0 W/m 3,2 km/h (1 Bft)
25.05.2011 02:55 18,8 C 58 % 1022,9 hPa 0,0 l/m 0,0 km/h (0 Bft) O 90 0 min 0 W/m 1,6 km/h (1 Bft)
25.05.2011 02:50 18,9 C 58 % 1022,9 hPa 0,0 l/m 0,0 km/h (0 Bft) O 90 0 min 0 W/m 1,6 km/h (1 Bft)
25.05.2011 02:45 18,9 C 57 % 1022,9 hPa 0,0 l/m 0,0 km/h (0 Bft) O 90 0 min 0 W/m 3,2 km/h (1 Bft)
25.05.2011 02:40 19,1 C 57 % 1022,8 hPa 0,0 l/m 0,0 km/h (0 Bft) O 90 0 min 0 W/m 1,6 km/h (1 Bft)
25.05.2011 02:35 19,1 C 57 % 1022,8 hPa 0,0 l/m 1,6 km/h (1 Bft) O 90 0 min 0 W/m 6,4 km/h (2 Bft)
25.05.2011 02:30 19,1 C 57 % 1022,8 hPa 0,0 l/m 3,2 km/h (1 Bft) O 90 0 min 0 W/m 6,4 km/h (2 Bft)
25.05.2011 02:25 19,1 C 56 % 1022,8 hPa 0,0 l/m 4,8 km/h (1 Bft) O-NO 67 0 min 0 W/m 9,7 km/h (2 Bft)
25.05.2011 02:20 19,1 C 58 % 1022,8 hPa 0,0 l/m 4,8 km/h (1 Bft) O-NO 67 0 min 0 W/m 9,7 km/h (2 Bft)
25.05.2011 02:15 19,1 C 60 % 1022,8 hPa 0,0 l/m 1,6 km/h (1 Bft) O-NO 67 0 min 0 W/m 4,8 km/h (1 Bft)
25.05.2011 02:10 19,2 C 60 % 1022,7 hPa 0,0 l/m 3,2 km/h (1 Bft) NO 45 0 min 0 W/m 8,0 km/h (2 Bft)
25.05.2011 02:05 19,4 C 61 % 1022,7 hPa 0,0 l/m 1,6 km/h (1 Bft) O-SO 112 0 min 0 W/m 4,8 km/h (1 Bft)
25.05.2011 02:00 19,5 C 60 % 1022,7 hPa 0,0 l/m 1,6 km/h (1 Bft) O 90 0 min 0 W/m 3,2 km/h (1 Bft)
25.05.2011 01:55 19,7 C 60 % 1022,6 hPa 0,0 l/m 3,2 km/h (1 Bft) O 90 0 min 0 W/m 6,4 km/h (2 Bft)
25.05.2011 01:50 19,8 C 59 % 1022,6 hPa 0,0 l/m 6,4 km/h (2 Bft) O 90 0 min 0 W/m 11,3 km/h (2 Bft)
25.05.2011 01:45 19,8 C 59 % 1022,6 hPa 0,0 l/m 4,8 km/h (1 Bft) NO 45 0 min 0 W/m 9,7 km/h (2 Bft)
25.05.2011 01:40 19,9 C 59 % 1022,5 hPa 0,0 l/m 6,4 km/h (2 Bft) O 90 0 min 0 W/m 8,0 km/h (2 Bft)
25.05.2011 01:35 20,1 C 59 % 1022,5 hPa 0,0 l/m 3,2 km/h (1 Bft) O 90 0 min 0 W/m 6,4 km/h (2 Bft)
25.05.2011 01:30 20,2 C 58 % 1022,5 hPa 0,0 l/m 4,8 km/h (1 Bft) O-NO 67 0 min 0 W/m 9,7 km/h (2 Bft)
25.05.2011 01:25 20,2 C 58 % 1022,4 hPa 0,0 l/m 4,8 km/h (1 Bft) NO 45 0 min 0 W/m 6,4 km/h (2 Bft)
25.05.2011 01:20 20,2 C 57 % 1022,4 hPa 0,0 l/m 3,2 km/h (1 Bft) O 90 0 min 0 W/m 4,8 km/h (1 Bft)
25.05.2011 01:15 20,3 C 57 % 1022,4 hPa 0,0 l/m 8,0 km/h (2 Bft) O-NO 67 0 min 0 W/m 11,3 km/h (2 Bft)
25.05.2011 01:10 20,3 C 57 % 1022,5 hPa 0,0 l/m 4,8 km/h (1 Bft) O-NO 67 0 min 0 W/m 9,7 km/h (2 Bft)
25.05.2011 01:05 20,5 C 57 % 1022,5 hPa 0,0 l/m 4,8 km/h (1 Bft) O 90 0 min 0 W/m 8,0 km/h (2 Bft)
25.05.2011 01:00 20,5 C 56 % 1022,5 hPa 0,0 l/m 4,8 km/h (1 Bft) O-NO 67 0 min 0 W/m 8,0 km/h (2 Bft)
25.05.2011 00:55 20,5 C 56 % 1022,5 hPa 0,0 l/m 3,2 km/h (1 Bft) O-NO 67 0 min 0 W/m 8,0 km/h (2 Bft)
25.05.2011 00:50 20,5 C 57 % 1022,5 hPa 0,0 l/m 3,2 km/h (1 Bft) O-NO 67 0 min 0 W/m 4,8 km/h (1 Bft)
25.05.2011 00:45 20,6 C 57 % 1022,5 hPa 0,0 l/m 6,4 km/h (2 Bft) O-NO 67 0 min 0 W/m 8,0 km/h (2 Bft)
25.05.2011 00:40 20,6 C 56 % 1022,5 hPa 0,0 l/m 3,2 km/h (1 Bft) O-NO 67 0 min 0 W/m 6,4 km/h (2 Bft)
25.05.2011 00:35 20,6 C 56 % 1022,5 hPa 0,0 l/m 3,2 km/h (1 Bft) O-NO 67 0 min 0 W/m 4,8 km/h (1 Bft)
25.05.2011 00:30 20,7 C 56 % 1022,5 hPa 0,0 l/m 2,4 km/h (1 Bft) O-NO 63 0 min 0 W/m 6,4 km/h (2 Bft)
25.05.2011 00:25 20,7 C 56 % 1022,5 hPa 0,0 l/m 5,4 km/h (1 Bft) O-NO 60 0 min 0 W/m 9,7 km/h (2 Bft)
25.05.2011 00:20 20,9 C 56 % 1022,5 hPa 0,0 l/m 4,0 km/h (1 Bft) O-NO 66 0 min 0 W/m 6,4 km/h (2 Bft)
25.05.2011 00:15 21,0 C 55 % 1022,5 hPa 0,0 l/m 4,8 km/h (1 Bft) O-NO 65 0 min 0 W/m 8,0 km/h (2 Bft)
25.05.2011 00:10 21,1 C 54 % 1022,7 hPa 0,0 l/m 5,9 km/h (2 Bft) O-NO 66 0 min 0 W/m 9,7 km/h (2 Bft)
25.05.2011 00:05 21,2 C 54 % 1022,7 hPa 0,0 l/m 7,3 km/h (2 Bft) O-NO 62 0 min 0 W/m 11,3 km/h (2 Bft)
25.05.2011 00:00 21,2 C 54 % 1022,7 hPa 0,0 l/m 5,8 km/h (2 Bft) O-NO 58 0 min 0 W/m 9,7 km/h (2 Bft)
_ Min-Zeit 06:25 15:15 17:15 - 02:40 - - - - 03:30
Minimum _ 16,9 C 28 % 1019,6 hPa - 0,0 km/h (0 Bft) - - - - 0,0 km/h (0 Bft)
_ Max-Zeit 15:20 02:05 08:45 00:00 17:40 - - 07:05 13:35 18:15
Maximum _ 30,1 C 61 % 1025,4 hPa 0,0 l/m 30,7 km/h
W-SW (5 Bft)
- - 5 min 1015 W/m 49,9 km/h
W-SW (6 Bft)
Durchschnitt _ 22,9 C 45 % 1022,6 hPa #0,0 l/m 6,0 km/h (2 Bft) SW - #11:15 h 512 W/m 12,5 km/h (3 Bft)